Time;durP1;ratioP1;P1;durP2;ratioP2;P2;SDS_P1;SDS_P2;PMS_P1;PMS_P2;Temp;Humidity;BMP_temperature;BMP_pressure;BME280_temperature;BME280_humidity;BME280_pressure;Samples;Min_cycle;Max_cycle;Signal;HPM_P1;HPM_P2
2021/07/08 00:00:23;;;;;;;8.57;5.38;;;;;;;;;;4949263;28;20647;-72
2021/07/08 00:02:48;;;;;;;7.00;5.28;;;;;;;;;;4947324;28;20213;-72
2021/07/08 00:05:15;;;;;;;9.43;5.78;;;;;;;;;;4944425;28;20177;-72
2021/07/08 00:07:40;;;;;;;8.25;5.03;;;;;;;;;;4942767;28;20273;-73
2021/07/08 00:10:08;;;;;;;8.75;5.43;;;;;;;;;;4941690;28;20268;-72
2021/07/08 00:12:33;;;;;;;6.95;4.95;;;;;;;;;;4945136;28;20569;-72
2021/07/08 00:14:58;;;;;;;8.40;4.35;;;;;;;;;;4954978;28;20235;-72
2021/07/08 00:17:24;;;;;;;6.35;4.78;;;;;;;;;;4946597;28;20181;-72
2021/07/08 00:19:49;;;;;;;6.10;5.18;;;;;;;;;;4944487;28;20225;-72
2021/07/08 00:22:14;;;;;;;6.63;4.80;;;;;;;;;;4955458;28;20603;-72
2021/07/08 00:24:39;;;;;;;11.65;5.32;;;;;;;;;;4954409;28;20184;-73
2021/07/08 00:27:04;;;;;;;5.63;4.45;;;;;;;;;;4948957;28;20257;-72
2021/07/08 00:29:29;;;;;;;7.90;5.40;;;;;;;;;;4942371;29;20666;-72
2021/07/08 00:31:55;;;;;;;7.85;5.30;;;;;;;;;;4947246;28;20211;-72
2021/07/08 00:34:20;;;;;;;7.05;5.32;;;;;;;;;;4966876;28;20739;-72
2021/07/08 00:36:45;;;;;;;7.85;6.20;;;;;;;;;;4944932;28;20185;-72
2021/07/08 00:39:10;;;;;;;7.47;5.10;;;;;;;;;;4945387;28;20627;-72
2021/07/08 00:41:36;;;;;;;6.70;5.53;;;;;;;;;;4939433;28;20647;-72
2021/07/08 00:44:01;;;;;;;7.03;5.25;;;;;;;;;;4944333;28;20201;-72
2021/07/08 00:46:26;;;;;;;9.98;5.50;;;;;;;;;;4967493;28;20708;-72
2021/07/08 00:48:51;;;;;;;8.18;5.53;;;;;;;;;;4952711;28;20180;-72
2021/07/08 00:51:17;;;;;;;9.13;5.68;;;;;;;;;;4948377;28;20190;-73
2021/07/08 00:53:42;;;;;;;8.43;5.25;;;;;;;;;;4953881;28;20212;-72
2021/07/08 00:56:07;;;;;;;7.45;5.97;;;;;;;;;;4946495;28;20257;-72
2021/07/08 00:58:32;;;;;;;8.98;6.40;;;;;;;;;;4949955;28;20178;-72
2021/07/08 01:00:58;;;;;;;8.05;6.15;;;;;;;;;;4948829;28;20236;-72
2021/07/08 01:03:24;;;;;;;11.23;5.63;;;;;;;;;;4950576;28;20201;-72
2021/07/08 01:05:50;;;;;;;8.15;5.40;;;;;;;;;;4944367;28;20685;-73
2021/07/08 01:08:16;;;;;;;8.30;5.32;;;;;;;;;;4950054;28;20204;-71
2021/07/08 01:10:41;;;;;;;8.20;5.22;;;;;;;;;;4945587;29;20640;-74
2021/07/08 01:13:07;;;;;;;8.13;5.68;;;;;;;;;;4942114;28;20217;-72
2021/07/08 01:15:32;;;;;;;11.00;5.55;;;;;;;;;;4939684;28;20182;-72
2021/07/08 01:17:58;;;;;;;5.82;5.22;;;;;;;;;;4936491;28;20546;-73
2021/07/08 01:20:24;;;;;;;7.75;5.03;;;;;;;;;;4942150;28;20191;-73
2021/07/08 01:22:57;;;;;;;8.00;5.53;;;;;;;;;;4942720;28;20224;-71
2021/07/08 01:25:22;;;;;;;9.95;6.50;;;;;;;;;;4940192;28;20191;-72
2021/07/08 01:27:48;;;;;;;8.00;5.75;;;;;;;;;;4940616;28;21489;-71
2021/07/08 01:30:13;;;;;;;7.75;5.78;;;;;;;;;;4940906;28;20188;-72
2021/07/08 01:32:38;;;;;;;9.73;5.95;;;;;;;;;;4940533;28;20216;-72
2021/07/08 01:35:05;;;;;;;8.00;5.13;;;;;;;;;;4941670;28;20184;-71
2021/07/08 01:37:31;;;;;;;6.70;5.57;;;;;;;;;;4945632;28;20207;-71
2021/07/08 01:39:59;;;;;;;9.10;6.68;;;;;;;;;;4941604;28;20813;-72
2021/07/08 01:42:25;;;;;;;9.63;6.15;;;;;;;;;;4942342;28;20214;-71
2021/07/08 01:44:50;;;;;;;6.90;5.90;;;;;;;;;;4942076;28;20176;-72
2021/07/08 01:47:15;;;;;;;8.65;5.97;;;;;;;;;;4944740;28;20176;-71
2021/07/08 01:49:40;;;;;;;7.05;5.47;;;;;;;;;;4941566;28;20620;-71
2021/07/08 01:52:06;;;;;;;7.60;5.80;;;;;;;;;;4943707;28;20573;-71
2021/07/08 01:54:31;;;;;;;9.48;6.35;;;;;;;;;;4947318;28;20197;-71
2021/07/08 01:56:56;;;;;;;8.05;5.90;;;;;;;;;;4941453;28;20212;-71
2021/07/08 01:59:21;;;;;;;7.80;5.88;;;;;;;;;;4937801;28;20199;-71
2021/07/08 02:01:46;;;;;;;7.40;6.10;;;;;;;;;;4941619;28;20221;-72
2021/07/08 02:04:12;;;;;;;8.20;5.57;;;;;;;;;;4939010;28;20185;-72
2021/07/08 02:06:37;;;;;;;9.02;5.93;;;;;;;;;;4942683;28;20184;-71
2021/07/08 02:09:04;;;;;;;10.48;6.43;;;;;;;;;;4938338;28;20187;-72
2021/07/08 02:11:30;;;;;;;7.63;5.82;;;;;;;;;;4941681;28;20243;-71
2021/07/08 02:13:55;;;;;;;8.48;5.53;;;;;;;;;;4943986;28;20200;-72
2021/07/08 02:16:20;;;;;;;6.00;5.22;;;;;;;;;;4940262;28;20217;-72
2021/07/08 02:18:45;;;;;;;9.45;6.18;;;;;;;;;;4941053;28;20200;-71
2021/07/08 02:21:11;;;;;;;7.22;6.10;;;;;;;;;;4942418;28;20205;-72
2021/07/08 02:23:36;;;;;;;10.55;5.82;;;;;;;;;;4943251;28;20336;-72
2021/07/08 02:26:02;;;;;;;7.40;5.22;;;;;;;;;;4939100;28;20216;-71
2021/07/08 02:28:27;;;;;;;7.13;5.53;;;;;;;;;;4940540;28;20199;-71
2021/07/08 02:30:52;;;;;;;7.90;5.60;;;;;;;;;;4940220;28;20602;-71
2021/07/08 02:33:17;;;;;;;6.63;5.65;;;;;;;;;;4946024;28;20217;-72
2021/07/08 02:35:43;;;;;;;6.50;5.25;;;;;;;;;;4939114;28;20185;-72
2021/07/08 02:38:08;;;;;;;7.93;6.53;;;;;;;;;;4941808;28;20184;-71
2021/07/08 02:40:35;;;;;;;8.27;6.15;;;;;;;;;;4941141;28;20752;-71
2021/07/08 02:43:01;;;;;;;7.10;6.30;;;;;;;;;;4941499;28;21004;-72
2021/07/08 02:45:27;;;;;;;8.82;6.05;;;;;;;;;;4940381;28;20726;-72
2021/07/08 02:47:53;;;;;;;10.68;6.55;;;;;;;;;;4941698;28;20804;-72
2021/07/08 02:50:19;;;;;;;9.55;6.10;;;;;;;;;;4939200;28;20663;-72
2021/07/08 02:52:44;;;;;;;9.15;6.22;;;;;;;;;;4947896;28;20197;-72
2021/07/08 02:55:10;;;;;;;8.38;5.78;;;;;;;;;;4937576;28;20251;-73
2021/07/08 02:57:36;;;;;;;7.25;5.70;;;;;;;;;;4939879;28;20539;-73
2021/07/08 03:00:01;;;;;;;10.73;5.63;;;;;;;;;;4940306;28;22442;-72
2021/07/08 03:02:26;;;;;;;9.18;6.32;;;;;;;;;;4943299;28;20222;-72
2021/07/08 03:04:51;;;;;;;9.68;6.60;;;;;;;;;;4938869;28;20618;-73
2021/07/08 03:07:17;;;;;;;8.60;6.88;;;;;;;;;;4938727;28;21802;-73
2021/07/08 03:09:42;;;;;;;9.63;6.20;;;;;;;;;;4943510;28;20204;-71
2021/07/08 03:12:08;;;;;;;8.52;5.90;;;;;;;;;;4940032;28;20690;-73
2021/07/08 03:14:33;;;;;;;8.20;6.38;;;;;;;;;;4938713;28;20208;-71
2021/07/08 03:16:58;;;;;;;7.75;5.88;;;;;;;;;;4940199;28;20509;-73
2021/07/08 03:19:23;;;;;;;13.63;6.55;;;;;;;;;;4942253;28;20222;-71
2021/07/08 03:21:49;;;;;;;9.10;6.22;;;;;;;;;;4942060;28;20483;-73
2021/07/08 03:24:14;;;;;;;8.38;6.28;;;;;;;;;;4942583;28;20186;-73
2021/07/08 03:26:39;;;;;;;8.50;6.78;;;;;;;;;;4943403;28;20270;-73
2021/07/08 03:29:04;;;;;;;7.25;6.03;;;;;;;;;;4947074;28;20720;-72
2021/07/08 03:31:29;;;;;;;10.52;6.45;;;;;;;;;;4946113;28;20196;-72
2021/07/08 03:33:55;;;;;;;10.32;6.95;;;;;;;;;;4947326;28;20780;-73
2021/07/08 03:36:20;;;;;;;8.05;6.07;;;;;;;;;;4943024;28;21558;-73
2021/07/08 03:38:45;;;;;;;8.65;5.95;;;;;;;;;;4948328;28;21990;-73
2021/07/08 03:41:10;;;;;;;8.32;5.85;;;;;;;;;;4944400;28;20209;-73
2021/07/08 03:43:35;;;;;;;10.50;6.88;;;;;;;;;;4948239;28;20196;-73
2021/07/08 03:46:00;;;;;;;8.65;6.10;;;;;;;;;;4943949;28;20184;-72
2021/07/08 03:48:26;;;;;;;9.82;6.60;;;;;;;;;;4944361;28;20225;-74
2021/07/08 03:50:51;;;;;;;10.30;6.22;;;;;;;;;;4941857;28;20186;-71
2021/07/08 03:53:16;;;;;;;12.23;6.85;;;;;;;;;;4939923;28;20752;-71
2021/07/08 03:55:41;;;;;;;9.40;6.78;;;;;;;;;;4943089;28;20231;-71
2021/07/08 03:58:06;;;;;;;10.52;6.63;;;;;;;;;;4948751;28;20219;-71
2021/07/08 04:00:33;;;;;;;7.22;6.32;;;;;;;;;;4942835;28;20186;-71
2021/07/08 04:02:59;;;;;;;7.30;5.57;;;;;;;;;;4939508;28;20974;-71
2021/07/08 04:05:25;;;;;;;11.38;7.30;;;;;;;;;;4943797;28;20200;-71
2021/07/08 04:07:50;;;;;;;7.00;6.28;;;;;;;;;;4948293;28;20185;-71
2021/07/08 04:10:15;;;;;;;12.70;6.95;;;;;;;;;;4946800;28;20248;-71
2021/07/08 04:12:40;;;;;;;10.70;6.25;;;;;;;;;;4945922;28;20883;-71
2021/07/08 04:15:06;;;;;;;9.40;6.82;;;;;;;;;;4955589;28;20197;-71
2021/07/08 04:17:31;;;;;;;10.68;6.68;;;;;;;;;;4945696;28;20521;-71
2021/07/08 04:19:56;;;;;;;5.88;5.38;;;;;;;;;;4940875;28;20191;-71
2021/07/08 04:22:23;;;;;;;7.18;6.15;;;;;;;;;;4942081;28;20213;-71
2021/07/08 04:24:48;;;;;;;7.60;6.45;;;;;;;;;;4944668;28;20555;-70
2021/07/08 04:27:14;;;;;;;7.33;6.27;;;;;;;;;;4940945;28;20181;-71
2021/07/08 04:29:39;;;;;;;8.50;6.10;;;;;;;;;;4942555;28;20422;-71
2021/07/08 04:32:04;;;;;;;6.75;6.05;;;;;;;;;;4944994;28;20200;-71
2021/07/08 04:34:29;;;;;;;7.13;6.43;;;;;;;;;;4943604;28;20231;-71
2021/07/08 04:36:55;;;;;;;6.97;5.88;;;;;;;;;;4942238;28;20196;-71
2021/07/08 04:39:20;;;;;;;7.53;5.43;;;;;;;;;;4940518;28;20183;-71
2021/07/08 04:41:47;;;;;;;7.30;5.72;;;;;;;;;;4941874;28;21055;-71
2021/07/08 04:44:12;;;;;;;9.48;6.18;;;;;;;;;;4943161;28;20724;-71
2021/07/08 04:46:37;;;;;;;6.70;5.60;;;;;;;;;;4940253;28;20189;-70
2021/07/08 04:49:03;;;;;;;7.50;6.43;;;;;;;;;;4945334;28;20176;-71
2021/07/08 04:51:28;;;;;;;8.20;5.82;;;;;;;;;;4945300;28;20186;-70
2021/07/08 04:53:53;;;;;;;6.05;5.45;;;;;;;;;;4944250;28;20173;-73
2021/07/08 04:56:18;;;;;;;11.63;7.10;;;;;;;;;;4942626;28;20209;-71
2021/07/08 04:58:43;;;;;;;8.00;6.00;;;;;;;;;;4951930;28;20561;-71
2021/07/08 05:01:09;;;;;;;9.73;6.23;;;;;;;;;;4947835;29;20483;-71
2021/07/08 05:03:34;;;;;;;9.88;6.93;;;;;;;;;;4944926;28;20822;-71
2021/07/08 05:05:59;;;;;;;7.57;6.07;;;;;;;;;;4947456;29;20565;-71
2021/07/08 05:08:24;;;;;;;8.13;6.20;;;;;;;;;;4950819;28;20191;-71
2021/07/08 05:10:49;;;;;;;12.75;6.63;;;;;;;;;;4946072;28;20194;-71
2021/07/08 05:13:15;;;;;;;7.37;6.60;;;;;;;;;;4944262;28;20595;-71
2021/07/08 05:15:40;;;;;;;7.72;6.40;;;;;;;;;;4939378;29;20427;-71
2021/07/08 05:18:05;;;;;;;7.73;6.77;;;;;;;;;;4954054;28;20185;-71
2021/07/08 05:20:31;;;;;;;9.65;6.78;;;;;;;;;;4944846;28;20977;-73
2021/07/08 05:23:13;;;;;;;8.82;5.93;;;;;;;;;;4964027;28;20209;-71
2021/07/08 05:25:38;;;;;;;11.25;6.25;;;;;;;;;;4946619;28;20173;-71
2021/07/08 05:28:04;;;;;;;8.55;6.25;;;;;;;;;;4941290;28;20184;-71
2021/07/08 05:30:29;;;;;;;10.85;6.13;;;;;;;;;;4948284;28;20481;-71
2021/07/08 05:32:56;;;;;;;7.83;6.70;;;;;;;;;;4944023;28;20290;-71
2021/07/08 05:35:22;;;;;;;12.00;6.32;;;;;;;;;;4943894;28;20435;-71
2021/07/08 05:37:48;;;;;;;11.70;6.20;;;;;;;;;;4948940;28;20184;-71
2021/07/08 05:40:14;;;;;;;11.85;6.85;;;;;;;;;;4952534;28;20427;-71
2021/07/08 05:42:39;;;;;;;9.73;7.07;;;;;;;;;;4946608;29;20301;-70
2021/07/08 05:45:05;;;;;;;13.95;6.93;;;;;;;;;;4944361;28;20173;-71
2021/07/08 05:47:30;;;;;;;11.48;7.25;;;;;;;;;;4941721;28;20184;-71
2021/07/08 05:49:55;;;;;;;8.50;6.07;;;;;;;;;;4947945;29;20181;-71
2021/07/08 05:52:20;;;;;;;8.07;5.93;;;;;;;;;;4948791;28;20213;-71
2021/07/08 05:54:46;;;;;;;7.20;6.25;;;;;;;;;;4951537;28;20187;-71
2021/07/08 05:57:11;;;;;;;7.37;5.93;;;;;;;;;;4949144;28;20181;-71
2021/07/08 05:59:36;;;;;;;8.53;6.10;;;;;;;;;;4951909;28;20939;-71
2021/07/08 06:02:01;;;;;;;8.10;6.40;;;;;;;;;;4960332;28;20466;-71
2021/07/08 06:04:26;;;;;;;7.18;5.70;;;;;;;;;;4964278;28;20931;-71
2021/07/08 06:06:52;;;;;;;7.75;6.32;;;;;;;;;;4936095;28;20180;-72
2021/07/08 06:09:17;;;;;;;6.65;5.93;;;;;;;;;;4944762;28;20181;-71
2021/07/08 06:11:42;;;;;;;7.78;5.72;;;;;;;;;;4939512;28;20240;-71
2021/07/08 06:14:07;;;;;;;7.00;6.03;;;;;;;;;;4944344;28;20185;-71
2021/07/08 06:16:33;;;;;;;8.13;6.25;;;;;;;;;;4954537;28;20679;-71
2021/07/08 06:18:58;;;;;;;9.85;6.05;;;;;;;;;;4941784;28;20803;-73
2021/07/08 06:21:24;;;;;;;7.77;6.23;;;;;;;;;;4941620;28;21468;-71
2021/07/08 06:23:49;;;;;;;6.28;5.68;;;;;;;;;;4944143;28;20426;-71
2021/07/08 06:26:15;;;;;;;8.07;5.47;;;;;;;;;;4938997;28;20979;-71
2021/07/08 06:28:41;;;;;;;6.90;5.30;;;;;;;;;;4942768;28;20317;-71
2021/07/08 06:31:07;;;;;;;6.65;5.10;;;;;;;;;;4940875;28;20501;-71
2021/07/08 06:33:32;;;;;;;5.10;4.00;;;;;;;;;;4946103;28;20208;-71
2021/07/08 06:35:57;;;;;;;5.88;3.65;;;;;;;;;;4945003;28;20323;-72
2021/07/08 06:38:22;;;;;;;5.90;3.20;;;;;;;;;;4944109;28;20580;-70
2021/07/08 06:40:49;;;;;;;4.70;2.60;;;;;;;;;;4941689;28;20453;-71
2021/07/08 06:43:15;;;;;;;3.22;2.03;;;;;;;;;;4943295;28;20263;-71
2021/07/08 06:45:41;;;;;;;3.40;2.13;;;;;;;;;;4941368;28;20232;-71
2021/07/08 06:48:06;;;;;;;2.67;1.83;;;;;;;;;;4942941;28;20201;-71
2021/07/08 06:50:36;;;;;;;3.00;1.55;;;;;;;;;;4942184;28;20240;-71
2021/07/08 06:53:02;;;;;;;3.25;2.00;;;;;;;;;;4944293;28;20260;-70
2021/07/08 06:55:27;;;;;;;3.97;2.50;;;;;;;;;;4943301;28;20180;-71
2021/07/08 06:57:53;;;;;;;2.63;2.30;;;;;;;;;;4940085;28;20668;-71
2021/07/08 07:00:21;;;;;;;3.17;1.83;;;;;;;;;;4944897;28;20517;-71
2021/07/08 07:02:46;;;;;;;3.42;2.25;;;;;;;;;;4956780;28;20205;-71
2021/07/08 07:05:12;;;;;;;3.10;1.85;;;;;;;;;;4943781;28;20185;-71
2021/07/08 07:07:37;;;;;;;3.35;2.30;;;;;;;;;;4946755;28;20265;-70
2021/07/08 07:10:02;;;;;;;3.03;2.10;;;;;;;;;;4944413;28;20287;-71
2021/07/08 07:12:27;;;;;;;2.55;2.15;;;;;;;;;;4951941;28;20785;-70
2021/07/08 07:14:53;;;;;;;3.07;2.10;;;;;;;;;;4943128;28;20188;-71
2021/07/08 07:17:18;;;;;;;3.10;2.70;;;;;;;;;;4942317;28;20884;-72
2021/07/08 07:19:43;;;;;;;4.00;2.75;;;;;;;;;;4944907;28;20447;-71
2021/07/08 07:22:08;;;;;;;3.27;2.60;;;;;;;;;;4942936;28;21267;-71
2021/07/08 07:24:33;;;;;;;3.23;2.73;;;;;;;;;;4944802;28;20771;-71
2021/07/08 07:26:59;;;;;;;3.10;2.75;;;;;;;;;;4945538;28;20422;-70
2021/07/08 07:29:24;;;;;;;3.40;2.67;;;;;;;;;;4943875;28;20187;-71
2021/07/08 07:31:49;;;;;;;5.20;2.70;;;;;;;;;;4948100;28;20869;-71
2021/07/08 07:34:15;;;;;;;6.13;3.17;;;;;;;;;;4950092;28;20457;-70
2021/07/08 07:36:40;;;;;;;7.85;3.05;;;;;;;;;;4945881;28;20418;-70
2021/07/08 07:39:05;;;;;;;3.50;2.88;;;;;;;;;;4943609;28;20192;-70
2021/07/08 07:41:31;;;;;;;4.40;2.87;;;;;;;;;;4946993;28;20271;-71
2021/07/08 07:43:56;;;;;;;4.32;3.10;;;;;;;;;;4945004;28;20449;-70
2021/07/08 07:46:21;;;;;;;3.33;2.70;;;;;;;;;;4947427;28;20189;-71
2021/07/08 07:48:47;;;;;;;5.60;3.27;;;;;;;;;;4942308;28;20497;-71
2021/07/08 07:51:12;;;;;;;4.45;2.80;;;;;;;;;;4946399;28;20426;-70
2021/07/08 07:53:37;;;;;;;6.38;3.28;;;;;;;;;;4945237;28;20216;-70
2021/07/08 07:56:02;;;;;;;4.65;3.63;;;;;;;;;;4943732;28;20264;-71
2021/07/08 07:58:30;;;;;;;4.45;2.90;;;;;;;;;;4945280;28;20193;-70
2021/07/08 08:00:56;;;;;;;4.22;3.40;;;;;;;;;;4954672;28;20734;-71
2021/07/08 08:03:21;;;;;;;8.15;4.18;;;;;;;;;;4954470;28;20205;-71
2021/07/08 08:05:57;;;;;;;5.03;3.15;;;;;;;;;;4943505;28;20223;-70
2021/07/08 08:08:30;;;;;;;3.95;3.50;;;;;;;;;;4945007;28;20973;-71
2021/07/08 08:10:56;;;;;;;5.22;3.25;;;;;;;;;;4946702;28;20196;-71
2021/07/08 08:13:22;;;;;;;3.97;3.60;;;;;;;;;;4949326;28;21366;-71
2021/07/08 08:15:50;;;;;;;5.00;3.10;;;;;;;;;;4946597;28;20183;-71
2021/07/08 08:18:15;;;;;;;3.53;2.97;;;;;;;;;;4942285;28;20186;-70
2021/07/08 08:20:40;;;;;;;5.95;2.95;;;;;;;;;;4943158;28;20190;-70
2021/07/08 08:23:06;;;;;;;4.43;2.63;;;;;;;;;;4947584;28;20220;-71
2021/07/08 08:25:31;;;;;;;4.03;2.57;;;;;;;;;;4946902;28;20177;-70
2021/07/08 08:27:58;;;;;;;3.08;2.70;;;;;;;;;;4943676;28;20433;-70
2021/07/08 08:30:23;;;;;;;3.58;2.60;;;;;;;;;;4945400;28;20204;-70
2021/07/08 08:32:48;;;;;;;2.83;1.90;;;;;;;;;;4947699;28;20208;-70
2021/07/08 08:35:14;;;;;;;3.83;2.23;;;;;;;;;;4946720;28;20437;-70
2021/07/08 08:37:41;;;;;;;2.78;2.35;;;;;;;;;;4942854;28;20427;-70
2021/07/08 08:40:07;;;;;;;2.05;1.73;;;;;;;;;;4942900;28;20568;-70
2021/07/08 08:42:32;;;;;;;3.25;1.98;;;;;;;;;;4944162;28;20208;-70
2021/07/08 08:44:57;;;;;;;5.25;2.03;;;;;;;;;;4944583;28;20893;-70
2021/07/08 08:47:23;;;;;;;2.37;1.40;;;;;;;;;;4950835;28;20199;-70
2021/07/08 08:49:48;;;;;;;3.97;2.03;;;;;;;;;;4938697;28;20189;-70
2021/07/08 08:52:14;;;;;;;3.35;1.90;;;;;;;;;;4943659;28;20962;-70
2021/07/08 08:54:42;;;;;;;2.47;1.88;;;;;;;;;;4945208;28;20539;-70
2021/07/08 08:57:07;;;;;;;3.88;2.25;;;;;;;;;;4945830;28;20529;-70
2021/07/08 08:59:33;;;;;;;2.67;1.92;;;;;;;;;;4945034;28;20256;-70
2021/07/08 09:02:10;;;;;;;2.58;1.65;;;;;;;;;;4943728;28;20216;-70
2021/07/08 09:04:36;;;;;;;2.65;1.75;;;;;;;;;;4943312;28;21508;-70
2021/07/08 09:07:21;;;;;;;2.78;1.80;;;;;;;;;;4943824;28;20675;-71
2021/07/08 09:09:46;;;;;;;2.28;1.90;;;;;;;;;;4943118;28;20199;-70
2021/07/08 09:12:12;;;;;;;2.85;1.67;;;;;;;;;;4963737;28;20696;-71
2021/07/08 09:14:37;;;;;;;2.28;1.80;;;;;;;;;;4946706;28;20275;-70
2021/07/08 09:17:14;;;;;;;1.60;1.23;;;;;;;;;;4945354;28;20193;-69
2021/07/08 09:19:39;;;;;;;3.47;1.92;;;;;;;;;;4945057;28;20203;-71
2021/07/08 09:22:04;;;;;;;2.53;1.92;;;;;;;;;;4940429;28;20221;-70
2021/07/08 09:24:34;;;;;;;4.55;1.45;;;;;;;;;;4945030;28;20492;-70
2021/07/08 09:27:02;;;;;;;2.97;1.50;;;;;;;;;;4943043;28;20271;-70
2021/07/08 09:29:30;;;;;;;2.28;1.55;;;;;;;;;;4942228;28;20180;-70
2021/07/08 09:31:55;;;;;;;2.72;1.33;;;;;;;;;;4941704;28;20216;-70
2021/07/08 09:34:27;;;;;;;3.30;1.58;;;;;;;;;;4947247;28;20185;-70
2021/07/08 09:37:07;;;;;;;2.08;1.65;;;;;;;;;;4943943;28;20661;-70
2021/07/08 09:39:33;;;;;;;3.00;1.73;;;;;;;;;;4939722;28;20234;-70
2021/07/08 09:41:58;;;;;;;2.83;1.65;;;;;;;;;;4941350;28;20244;-71
2021/07/08 09:44:25;;;;;;;2.43;1.77;;;;;;;;;;4942327;28;20257;-70
2021/07/08 09:46:51;;;;;;;6.70;1.65;;;;;;;;;;4944263;28;20958;-69
2021/07/08 09:49:16;;;;;;;2.35;1.92;;;;;;;;;;4939318;28;20177;-71
2021/07/08 09:51:44;;;;;;;3.72;1.90;;;;;;;;;;4944340;28;20265;-71
2021/07/08 09:54:24;;;;;;;2.92;2.05;;;;;;;;;;4938136;28;20693;-70
2021/07/08 09:56:51;;;;;;;3.92;1.75;;;;;;;;;;4941678;28;20180;-71
2021/07/08 09:59:19;;;;;;;2.20;1.88;;;;;;;;;;4941519;28;20181;-70
2021/07/08 10:01:46;;;;;;;2.20;1.80;;;;;;;;;;4948426;28;20216;-72
2021/07/08 10:04:11;;;;;;;2.17;1.67;;;;;;;;;;4945107;28;20185;-71
2021/07/08 10:06:37;;;;;;;4.80;1.80;;;;;;;;;;4947225;28;20180;-72
2021/07/08 10:09:03;;;;;;;3.22;1.50;;;;;;;;;;4943546;28;20185;-72
2021/07/08 10:11:29;;;;;;;2.90;2.08;;;;;;;;;;4942475;28;20723;-72
2021/07/08 10:13:56;;;;;;;2.72;1.65;;;;;;;;;;4942984;28;20576;-72
2021/07/08 10:16:22;;;;;;;2.17;1.90;;;;;;;;;;4943636;28;20887;-72
2021/07/08 10:18:48;;;;;;;2.60;2.40;;;;;;;;;;4944358;28;20259;-72
2021/07/08 10:21:16;;;;;;;3.47;2.00;;;;;;;;;;4952656;28;20204;-72
2021/07/08 10:23:41;;;;;;;2.45;1.83;;;;;;;;;;4947755;28;20210;-72
2021/07/08 10:26:07;;;;;;;4.05;2.10;;;;;;;;;;4943670;28;20567;-72
2021/07/08 10:28:34;;;;;;;2.05;1.60;;;;;;;;;;4937375;28;21293;-72
2021/07/08 10:30:59;;;;;;;3.28;1.77;;;;;;;;;;4937989;28;20196;-71
2021/07/08 10:33:24;;;;;;;3.22;1.98;;;;;;;;;;4940507;28;20341;-72
2021/07/08 10:35:51;;;;;;;5.05;1.80;;;;;;;;;;4940401;28;20181;-73
2021/07/08 10:38:29;;;;;;;2.42;1.55;;;;;;;;;;4946252;28;20193;-71
2021/07/08 10:40:54;;;;;;;5.70;1.60;;;;;;;;;;4943038;28;20192;-71
2021/07/08 10:43:32;;;;;;;2.45;2.25;;;;;;;;;;4958278;28;20666;-72
2021/07/08 10:46:01;;;;;;;1.95;1.73;;;;;;;;;;4938617;28;20183;-73
2021/07/08 10:48:37;;;;;;;1.90;1.80;;;;;;;;;;4947636;28;20182;-71
2021/07/08 10:51:02;;;;;;;4.57;2.08;;;;;;;;;;4941076;28;20310;-72
2021/07/08 10:53:35;;;;;;;2.30;1.50;;;;;;;;;;4943073;28;20199;-71
2021/07/08 10:56:01;;;;;;;1.85;1.30;;;;;;;;;;4961230;28;20288;-71
2021/07/08 10:58:39;;;;;;;4.10;2.40;;;;;;;;;;4944913;28;20835;-72
2021/07/08 11:01:06;;;;;;;4.10;2.00;;;;;;;;;;4941321;28;20180;-72
2021/07/08 11:03:38;;;;;;;2.30;2.10;;;;;;;;;;4942657;28;22221;-72
2021/07/08 11:06:20;;;;;;;2.00;1.63;;;;;;;;;;4941282;28;20554;-72
2021/07/08 11:08:45;;;;;;;2.88;1.70;;;;;;;;;;4949967;28;20175;-74
2021/07/08 11:11:11;;;;;;;2.47;1.98;;;;;;;;;;4954309;28;20192;-74
2021/07/08 11:13:36;;;;;;;3.03;2.03;;;;;;;;;;4944352;28;20335;-74
2021/07/08 11:16:01;;;;;;;2.63;1.70;;;;;;;;;;4944663;28;20177;-74
2021/07/08 11:18:32;;;;;;;4.63;2.23;;;;;;;;;;4950025;28;20430;-72
2021/07/08 11:20:58;;;;;;;2.85;1.70;;;;;;;;;;4957961;28;20816;-72
2021/07/08 11:23:38;;;;;;;2.72;1.90;;;;;;;;;;4942981;28;20200;-73
2021/07/08 11:26:03;;;;;;;3.83;1.80;;;;;;;;;;4958052;28;20181;-73
2021/07/08 11:28:30;;;;;;;4.20;1.60;;;;;;;;;;4943210;28;20192;-73
2021/07/08 11:31:01;;;;;;;3.40;2.10;;;;;;;;;;4939265;28;20175;-74
2021/07/08 11:33:27;;;;;;;3.45;2.10;;;;;;;;;;4939088;28;20217;-74
2021/07/08 11:35:58;;;;;;;3.70;2.40;;;;;;;;;;4939159;28;20181;-73
2021/07/08 11:38:24;;;;;;;5.13;2.78;;;;;;;;;;4944226;28;20709;-74
2021/07/08 11:40:51;;;;;;;3.10;2.80;;;;;;;;;;4941176;28;20189;-74
2021/07/08 11:43:33;;;;;;;3.92;2.80;;;;;;;;;;4942725;28;20263;-72
2021/07/08 11:46:06;;;;;;;5.20;2.40;;;;;;;;;;4950567;28;20192;-71
2021/07/08 11:48:36;;;;;;;4.82;2.80;;;;;;;;;;4942308;28;20180;-72
2021/07/08 11:51:12;;;;;;;3.40;2.17;;;;;;;;;;4945499;28;20615;-72
2021/07/08 11:53:38;;;;;;;2.85;2.40;;;;;;;;;;4954211;28;20210;-72
2021/07/08 11:56:03;;;;;;;4.80;2.33;;;;;;;;;;4946577;28;20630;-72
2021/07/08 11:58:29;;;;;;;3.60;2.00;;;;;;;;;;4944669;28;20255;-72
2021/07/08 12:01:01;;;;;;;4.38;2.40;;;;;;;;;;4944721;28;20189;-73
2021/07/08 12:03:32;;;;;;;2.22;1.83;;;;;;;;;;4947412;28;20566;-73
2021/07/08 12:06:00;;;;;;;2.08;1.88;;;;;;;;;;4946692;28;20181;-71
2021/07/08 12:08:27;;;;;;;2.63;1.52;;;;;;;;;;4945301;28;20245;-71
2021/07/08 12:10:56;;;;;;;2.88;1.50;;;;;;;;;;4940481;28;20192;-71
2021/07/08 12:13:21;;;;;;;2.78;1.67;;;;;;;;;;4943993;28;20248;-71
2021/07/08 12:15:46;;;;;;;5.90;2.50;;;;;;;;;;4945471;28;20224;-71
2021/07/08 12:18:12;;;;;;;4.87;2.90;;;;;;;;;;4945141;28;20721;-74
2021/07/08 12:20:47;;;;;;;4.00;2.47;;;;;;;;;;4944547;28;20192;-74
2021/07/08 12:23:13;;;;;;;2.47;2.20;;;;;;;;;;4954412;28;20620;-73
2021/07/08 12:25:38;;;;;;;5.47;3.05;;;;;;;;;;4943558;28;20185;-73
2021/07/08 12:28:03;;;;;;;2.93;2.70;;;;;;;;;;4943962;28;20476;-73
2021/07/08 12:30:30;;;;;;;4.53;2.80;;;;;;;;;;4941959;28;20191;-72
2021/07/08 12:33:09;;;;;;;3.13;2.42;;;;;;;;;;4945467;28;20213;-72
2021/07/08 12:35:37;;;;;;;3.90;2.92;;;;;;;;;;4944242;28;20259;-72
2021/07/08 12:38:02;;;;;;;4.00;3.42;;;;;;;;;;4949351;28;20734;-71
2021/07/08 12:40:28;;;;;;;3.07;2.73;;;;;;;;;;4946156;28;20199;-73
2021/07/08 12:42:53;;;;;;;5.33;2.77;;;;;;;;;;4949649;28;20475;-71
2021/07/08 12:45:20;;;;;;;2.83;2.40;;;;;;;;;;4944527;28;20173;-74
2021/07/08 12:47:53;;;;;;;4.15;3.22;;;;;;;;;;4947583;28;20185;-74
2021/07/08 12:50:25;;;;;;;3.45;3.03;;;;;;;;;;4944206;28;20180;-74
2021/07/08 12:52:50;;;;;;;6.28;3.17;;;;;;;;;;4948871;28;20355;-74
2021/07/08 12:55:34;;;;;;;5.75;3.03;;;;;;;;;;4944138;28;20185;-74
2021/07/08 12:58:03;;;;;;;5.50;2.88;;;;;;;;;;4948417;28;20225;-74
2021/07/08 13:00:32;;;;;;;3.90;3.03;;;;;;;;;;4943855;28;20738;-74
2021/07/08 13:02:58;;;;;;;3.17;2.47;;;;;;;;;;4944028;28;20227;-72
2021/07/08 13:05:33;;;;;;;3.63;2.65;;;;;;;;;;4943105;28;20202;-73
2021/07/08 13:07:58;;;;;;;4.20;2.70;;;;;;;;;;4945702;28;20232;-72
2021/07/08 13:10:32;;;;;;;3.13;2.38;;;;;;;;;;4942895;28;20184;-72
2021/07/08 13:12:59;;;;;;;4.05;2.60;;;;;;;;;;4971858;23;20268;-73
2021/07/08 13:15:24;;;;;;;5.03;2.47;;;;;;;;;;4959690;28;20191;-72
2021/07/08 13:18:05;;;;;;;3.83;3.17;;;;;;;;;;4977574;28;20187;-72
2021/07/08 13:20:30;;;;;;;5.68;3.83;;;;;;;;;;4975480;28;20184;-73
2021/07/08 13:22:56;;;;;;;4.47;3.25;;;;;;;;;;4959109;28;20690;-73
2021/07/08 13:25:22;;;;;;;5.53;3.85;;;;;;;;;;4976906;28;20180;-73
2021/07/08 13:27:48;;;;;;;4.15;3.30;;;;;;;;;;4979243;28;20262;-73
2021/07/08 13:30:35;;;;;;;3.45;2.97;;;;;;;;;;4975244;28;20188;-73
2021/07/08 13:33:11;;;;;;;3.80;3.05;;;;;;;;;;4976848;28;20199;-73
2021/07/08 13:35:36;;;;;;;4.47;2.70;;;;;;;;;;4975226;28;20207;-73
2021/07/08 13:38:08;;;;;;;3.85;2.75;;;;;;;;;;4976665;28;20903;-74
2021/07/08 13:40:34;;;;;;;3.65;2.38;;;;;;;;;;4975653;28;20179;-74
2021/07/08 13:43:09;;;;;;;3.90;2.63;;;;;;;;;;4978376;28;20218;-74
2021/07/08 13:45:34;;;;;;;2.53;1.83;;;;;;;;;;4960907;28;20196;-73
2021/07/08 13:48:13;;;;;;;3.10;2.53;;;;;;;;;;4974197;28;20295;-73
2021/07/08 13:50:38;;;;;;;5.07;2.05;;;;;;;;;;4981931;28;20210;-74
2021/07/08 13:53:03;;;;;;;2.47;2.27;;;;;;;;;;4974153;28;20278;-74
2021/07/08 13:55:29;;;;;;;3.25;2.78;;;;;;;;;;4975553;28;20855;-74
2021/07/08 13:57:54;;;;;;;5.27;2.40;;;;;;;;;;4977386;28;20198;-74
2021/07/08 14:00:19;;;;;;;2.77;2.50;;;;;;;;;;4975412;28;20757;-71
2021/07/08 14:02:45;;;;;;;5.17;2.40;;;;;;;;;;4974782;28;20525;-74
2021/07/08 14:05:10;;;;;;;4.13;2.17;;;;;;;;;;4974754;28;20190;-73
2021/07/08 14:07:35;;;;;;;2.97;2.72;;;;;;;;;;4972874;28;20425;-74
2021/07/08 14:10:01;;;;;;;3.70;3.40;;;;;;;;;;4973634;28;20672;-71
2021/07/08 14:12:26;;;;;;;4.97;3.40;;;;;;;;;;4972992;28;20293;-71
2021/07/08 14:14:51;;;;;;;4.17;3.53;;;;;;;;;;4977157;28;20192;-71
2021/07/08 14:17:16;;;;;;;4.10;3.70;;;;;;;;;;4976579;28;20556;-71
2021/07/08 14:19:41;;;;;;;4.03;3.20;;;;;;;;;;4962150;28;20190;-71
2021/07/08 14:22:06;;;;;;;4.53;3.97;;;;;;;;;;4977005;28;20688;-71
2021/07/08 14:24:32;;;;;;;5.00;3.60;;;;;;;;;;4973786;28;20236;-71
2021/07/08 14:26:57;;;;;;;4.30;3.10;;;;;;;;;;4974667;28;20654;-71
2021/07/08 14:29:22;;;;;;;4.43;3.73;;;;;;;;;;4974735;28;20429;-70
2021/07/08 14:31:47;;;;;;;3.67;3.33;;;;;;;;;;4974867;28;20187;-71
2021/07/08 14:34:13;;;;;;;7.22;3.30;;;;;;;;;;4959629;28;20183;-71
2021/07/08 14:36:38;;;;;;;3.90;3.50;;;;;;;;;;4974306;28;20183;-71
2021/07/08 14:39:04;;;;;;;4.80;3.70;;;;;;;;;;4980362;28;20179;-70